sensor_id;sensor_type;location;lat;lon;timestamp;P1;durP1;ratioP1;P2;durP2;ratioP2
16171;SDS011;8192;53.596;10.166;2023-08-07T00:02:00;22.42;;;20.13;;
16171;SDS011;8192;53.596;10.166;2023-08-07T00:04:26;21.50;;;19.70;;
16171;SDS011;8192;53.596;10.166;2023-08-07T00:06:54;21.42;;;19.73;;
16171;SDS011;8192;53.596;10.166;2023-08-07T00:09:21;21.88;;;19.98;;
16171;SDS011;8192;53.596;10.166;2023-08-07T00:11:50;21.67;;;19.77;;
16171;SDS011;8192;53.596;10.166;2023-08-07T00:14:17;22.15;;;20.00;;
16171;SDS011;8192;53.596;10.166;2023-08-07T00:16:45;21.60;;;19.90;;
16171;SDS011;8192;53.596;10.166;2023-08-07T00:19:12;21.58;;;19.73;;
16171;SDS011;8192;53.596;10.166;2023-08-07T00:21:39;22.02;;;20.25;;
16171;SDS011;8192;53.596;10.166;2023-08-07T00:24:07;22.10;;;20.20;;
16171;SDS011;8192;53.596;10.166;2023-08-07T00:26:33;21.17;;;19.50;;
16171;SDS011;8192;53.596;10.166;2023-08-07T00:29:02;21.10;;;19.30;;
16171;SDS011;8192;53.596;10.166;2023-08-07T00:31:29;22.00;;;19.95;;
16171;SDS011;8192;53.596;10.166;2023-08-07T00:33:56;21.05;;;19.25;;
16171;SDS011;8192;53.596;10.166;2023-08-07T00:36:23;20.73;;;18.98;;
16171;SDS011;8192;53.596;10.166;2023-08-07T00:38:53;20.98;;;19.35;;
16171;SDS011;8192;53.596;10.166;2023-08-07T00:41:20;21.98;;;19.98;;
16171;SDS011;8192;53.596;10.166;2023-08-07T00:43:47;21.23;;;19.33;;
16171;SDS011;8192;53.596;10.166;2023-08-07T00:46:16;21.17;;;19.55;;
16171;SDS011;8192;53.596;10.166;2023-08-07T00:48:43;20.80;;;19.15;;
16171;SDS011;8192;53.596;10.166;2023-08-07T00:51:10;21.27;;;19.60;;
16171;SDS011;8192;53.596;10.166;2023-08-07T00:53:37;21.15;;;19.35;;
16171;SDS011;8192;53.596;10.166;2023-08-07T00:56:05;20.80;;;19.20;;
16171;SDS011;8192;53.596;10.166;2023-08-07T00:58:32;21.02;;;19.33;;
16171;SDS011;8192;53.596;10.166;2023-08-07T01:01:00;21.02;;;19.33;;
16171;SDS011;8192;53.596;10.166;2023-08-07T01:03:29;20.63;;;18.98;;
16171;SDS011;8192;53.596;10.166;2023-08-07T01:05:56;21.05;;;19.25;;
16171;SDS011;8192;53.596;10.166;2023-08-07T01:08:24;21.08;;;19.48;;
16171;SDS011;8192;53.596;10.166;2023-08-07T01:10:56;21.65;;;19.85;;
16171;SDS011;8192;53.596;10.166;2023-08-07T01:13:38;22.02;;;20.00;;
16171;SDS011;8192;53.596;10.166;2023-08-07T01:16:13;21.48;;;19.67;;
16171;SDS011;8192;53.596;10.166;2023-08-07T01:18:51;21.65;;;19.70;;
16171;SDS011;8192;53.596;10.166;2023-08-07T01:21:20;21.17;;;19.48;;
16171;SDS011;8192;53.596;10.166;2023-08-07T01:23:49;21.65;;;19.73;;
16171;SDS011;8192;53.596;10.166;2023-08-07T01:26:17;21.10;;;19.50;;
16171;SDS011;8192;53.596;10.166;2023-08-07T01:28:46;21.70;;;19.85;;
16171;SDS011;8192;53.596;10.166;2023-08-07T01:31:21;20.85;;;19.40;;
16171;SDS011;8192;53.596;10.166;2023-08-07T01:33:53;21.65;;;20.02;;
16171;SDS011;8192;53.596;10.166;2023-08-07T01:36:25;20.90;;;19.30;;
16171;SDS011;8192;53.596;10.166;2023-08-07T01:38:56;21.25;;;19.55;;
16171;SDS011;8192;53.596;10.166;2023-08-07T01:41:25;21.80;;;19.90;;
16171;SDS011;8192;53.596;10.166;2023-08-07T01:43:53;20.80;;;19.20;;
16171;SDS011;8192;53.596;10.166;2023-08-07T01:46:21;21.20;;;19.50;;
16171;SDS011;8192;53.596;10.166;2023-08-07T01:48:48;21.30;;;19.70;;
16171;SDS011;8192;53.596;10.166;2023-08-07T01:51:15;20.70;;;19.17;;
16171;SDS011;8192;53.596;10.166;2023-08-07T01:53:42;21.52;;;19.73;;
16171;SDS011;8192;53.596;10.166;2023-08-07T01:56:10;21.83;;;19.60;;
16171;SDS011;8192;53.596;10.166;2023-08-07T01:58:37;20.98;;;19.27;;
16171;SDS011;8192;53.596;10.166;2023-08-07T02:01:04;21.92;;;19.90;;
16171;SDS011;8192;53.596;10.166;2023-08-07T02:03:31;21.75;;;19.83;;
16171;SDS011;8192;53.596;10.166;2023-08-07T02:05:58;21.30;;;19.45;;
16171;SDS011;8192;53.596;10.166;2023-08-07T02:08:25;20.88;;;19.27;;
16171;SDS011;8192;53.596;10.166;2023-08-07T02:10:52;21.33;;;19.67;;
16171;SDS011;8192;53.596;10.166;2023-08-07T02:13:21;21.08;;;19.35;;
16171;SDS011;8192;53.596;10.166;2023-08-07T02:15:48;20.70;;;19.20;;
16171;SDS011;8192;53.596;10.166;2023-08-07T02:18:15;20.77;;;19.17;;
16171;SDS011;8192;53.596;10.166;2023-08-07T02:20:42;21.73;;;20.13;;
16171;SDS011;8192;53.596;10.166;2023-08-07T02:23:08;21.13;;;19.38;;
16171;SDS011;8192;53.596;10.166;2023-08-07T02:25:35;21.00;;;19.25;;
16171;SDS011;8192;53.596;10.166;2023-08-07T02:28:02;21.52;;;19.65;;
16171;SDS011;8192;53.596;10.166;2023-08-07T02:30:32;21.15;;;19.50;;
16171;SDS011;8192;53.596;10.166;2023-08-07T02:32:59;21.65;;;19.75;;
16171;SDS011;8192;53.596;10.166;2023-08-07T02:35:26;20.88;;;19.30;;
16171;SDS011;8192;53.596;10.166;2023-08-07T02:37:53;20.92;;;19.38;;
16171;SDS011;8192;53.596;10.166;2023-08-07T02:40:20;21.20;;;19.40;;
16171;SDS011;8192;53.596;10.166;2023-08-07T02:42:47;21.63;;;19.60;;
16171;SDS011;8192;53.596;10.166;2023-08-07T02:45:16;21.40;;;19.50;;
16171;SDS011;8192;53.596;10.166;2023-08-07T02:47:45;21.10;;;19.45;;
16171;SDS011;8192;53.596;10.166;2023-08-07T02:50:12;20.70;;;19.20;;
16171;SDS011;8192;53.596;10.166;2023-08-07T02:52:40;21.15;;;19.45;;
16171;SDS011;8192;53.596;10.166;2023-08-07T02:55:07;20.95;;;19.13;;
16171;SDS011;8192;53.596;10.166;2023-08-07T02:57:34;20.77;;;19.25;;
16171;SDS011;8192;53.596;10.166;2023-08-07T03:00:01;20.90;;;19.20;;
16171;SDS011;8192;53.596;10.166;2023-08-07T03:02:28;21.25;;;19.55;;
16171;SDS011;8192;53.596;10.166;2023-08-07T03:04:57;21.42;;;19.73;;
16171;SDS011;8192;53.596;10.166;2023-08-07T03:07:24;21.63;;;19.80;;
16171;SDS011;8192;53.596;10.166;2023-08-07T03:09:51;21.35;;;19.63;;
16171;SDS011;8192;53.596;10.166;2023-08-07T03:12:18;21.27;;;19.60;;
16171;SDS011;8192;53.596;10.166;2023-08-07T03:14:46;21.33;;;19.52;;
16171;SDS011;8192;53.596;10.166;2023-08-07T03:17:13;21.27;;;19.67;;
16171;SDS011;8192;53.596;10.166;2023-08-07T03:19:41;21.50;;;19.80;;
16171;SDS011;8192;53.596;10.166;2023-08-07T03:22:10;21.90;;;19.85;;
16171;SDS011;8192;53.596;10.166;2023-08-07T03:24:38;21.75;;;19.67;;
16171;SDS011;8192;53.596;10.166;2023-08-07T03:27:05;22.27;;;20.00;;
16171;SDS011;8192;53.596;10.166;2023-08-07T03:29:32;21.10;;;19.50;;
16171;SDS011;8192;53.596;10.166;2023-08-07T03:31:59;21.33;;;19.73;;
16171;SDS011;8192;53.596;10.166;2023-08-07T03:34:26;21.33;;;19.70;;
16171;SDS011;8192;53.596;10.166;2023-08-07T03:36:53;21.08;;;19.50;;
16171;SDS011;8192;53.596;10.166;2023-08-07T03:39:21;21.38;;;19.58;;
16171;SDS011;8192;53.596;10.166;2023-08-07T03:41:48;21.20;;;19.27;;
16171;SDS011;8192;53.596;10.166;2023-08-07T03:44:16;21.52;;;19.90;;
16171;SDS011;8192;53.596;10.166;2023-08-07T03:46:43;21.25;;;19.50;;
16171;SDS011;8192;53.596;10.166;2023-08-07T03:49:10;21.30;;;19.70;;
16171;SDS011;8192;53.596;10.166;2023-08-07T03:51:37;21.05;;;19.42;;
16171;SDS011;8192;53.596;10.166;2023-08-07T03:54:04;20.80;;;19.23;;
16171;SDS011;8192;53.596;10.166;2023-08-07T03:56:33;21.00;;;19.25;;
16171;SDS011;8192;53.596;10.166;2023-08-07T03:59:03;21.83;;;19.92;;
16171;SDS011;8192;53.596;10.166;2023-08-07T04:01:30;22.83;;;20.88;;
16171;SDS011;8192;53.596;10.166;2023-08-07T04:03:57;21.52;;;19.63;;
16171;SDS011;8192;53.596;10.166;2023-08-07T04:06:25;22.02;;;19.80;;
16171;SDS011;8192;53.596;10.166;2023-08-07T04:08:52;21.63;;;19.77;;
16171;SDS011;8192;53.596;10.166;2023-08-07T04:11:19;22.13;;;20.17;;
16171;SDS011;8192;53.596;10.166;2023-08-07T04:13:48;21.35;;;19.75;;
16171;SDS011;8192;53.596;10.166;2023-08-07T04:16:14;21.80;;;20.00;;
16171;SDS011;8192;53.596;10.166;2023-08-07T04:18:42;22.15;;;20.25;;
16171;SDS011;8192;53.596;10.166;2023-08-07T04:21:08;22.02;;;20.17;;
16171;SDS011;8192;53.596;10.166;2023-08-07T04:23:37;22.23;;;20.23;;
16171;SDS011;8192;53.596;10.166;2023-08-07T04:26:04;21.73;;;19.92;;
16171;SDS011;8192;53.596;10.166;2023-08-07T04:28:31;22.08;;;20.17;;
16171;SDS011;8192;53.596;10.166;2023-08-07T04:31:00;21.65;;;19.80;;
16171;SDS011;8192;53.596;10.166;2023-08-07T04:33:27;21.80;;;19.95;;
16171;SDS011;8192;53.596;10.166;2023-08-07T04:35:54;22.00;;;20.15;;
16171;SDS011;8192;53.596;10.166;2023-08-07T04:38:21;22.27;;;20.02;;
16171;SDS011;8192;53.596;10.166;2023-08-07T04:40:49;23.92;;;20.33;;
16171;SDS011;8192;53.596;10.166;2023-08-07T04:43:17;22.08;;;19.95;;
16171;SDS011;8192;53.596;10.166;2023-08-07T04:45:45;22.48;;;20.45;;
16171;SDS011;8192;53.596;10.166;2023-08-07T04:48:14;22.33;;;20.23;;
16171;SDS011;8192;53.596;10.166;2023-08-07T04:50:42;22.40;;;20.27;;
16171;SDS011;8192;53.596;10.166;2023-08-07T04:53:09;23.17;;;20.98;;
16171;SDS011;8192;53.596;10.166;2023-08-07T04:55:36;22.60;;;20.60;;
16171;SDS011;8192;53.596;10.166;2023-08-07T04:58:04;22.42;;;20.50;;
16171;SDS011;8192;53.596;10.166;2023-08-07T05:00:31;22.90;;;20.73;;
16171;SDS011;8192;53.596;10.166;2023-08-07T05:02:59;22.73;;;20.65;;
16171;SDS011;8192;53.596;10.166;2023-08-07T05:05:30;23.10;;;20.88;;
16171;SDS011;8192;53.596;10.166;2023-08-07T05:07:57;23.00;;;20.67;;
16171;SDS011;8192;53.596;10.166;2023-08-07T05:10:25;22.45;;;20.13;;
16171;SDS011;8192;53.596;10.166;2023-08-07T05:12:52;22.05;;;19.92;;
16171;SDS011;8192;53.596;10.166;2023-08-07T05:15:20;21.52;;;19.73;;
16171;SDS011;8192;53.596;10.166;2023-08-07T05:17:48;22.45;;;20.45;;
16171;SDS011;8192;53.596;10.166;2023-08-07T05:20:16;22.95;;;20.85;;
16171;SDS011;8192;53.596;10.166;2023-08-07T05:22:44;22.55;;;20.23;;
16171;SDS011;8192;53.596;10.166;2023-08-07T05:25:13;21.88;;;19.90;;
16171;SDS011;8192;53.596;10.166;2023-08-07T05:27:41;22.35;;;20.30;;
16171;SDS011;8192;53.596;10.166;2023-08-07T05:30:10;21.73;;;19.88;;
16171;SDS011;8192;53.596;10.166;2023-08-07T05:32:38;22.17;;;20.05;;
16171;SDS011;8192;53.596;10.166;2023-08-07T05:35:06;22.42;;;20.55;;
16171;SDS011;8192;53.596;10.166;2023-08-07T05:37:34;22.13;;;20.05;;
16171;SDS011;8192;53.596;10.166;2023-08-07T05:40:08;22.23;;;19.98;;
16171;SDS011;8192;53.596;10.166;2023-08-07T05:42:39;22.25;;;20.15;;
16171;SDS011;8192;53.596;10.166;2023-08-07T05:45:07;21.73;;;19.52;;
16171;SDS011;8192;53.596;10.166;2023-08-07T05:47:37;22.80;;;20.35;;
16171;SDS011;8192;53.596;10.166;2023-08-07T05:50:04;22.92;;;20.58;;
16171;SDS011;8192;53.596;10.166;2023-08-07T05:52:32;21.50;;;19.70;;
16171;SDS011;8192;53.596;10.166;2023-08-07T05:55:01;21.95;;;19.88;;
16171;SDS011;8192;53.596;10.166;2023-08-07T05:57:30;21.52;;;19.63;;
16171;SDS011;8192;53.596;10.166;2023-08-07T05:59:57;21.88;;;19.98;;
16171;SDS011;8192;53.596;10.166;2023-08-07T06:02:24;22.27;;;19.95;;
16171;SDS011;8192;53.596;10.166;2023-08-07T06:04:51;21.35;;;19.55;;
16171;SDS011;8192;53.596;10.166;2023-08-07T06:07:19;22.48;;;20.10;;
16171;SDS011;8192;53.596;10.166;2023-08-07T06:09:46;22.30;;;20.10;;
16171;SDS011;8192;53.596;10.166;2023-08-07T06:12:13;21.48;;;19.60;;
16171;SDS011;8192;53.596;10.166;2023-08-07T06:14:41;21.90;;;19.90;;
16171;SDS011;8192;53.596;10.166;2023-08-07T06:17:09;22.13;;;20.00;;
16171;SDS011;8192;53.596;10.166;2023-08-07T06:19:36;21.88;;;19.95;;
16171;SDS011;8192;53.596;10.166;2023-08-07T06:22:03;22.65;;;20.20;;
16171;SDS011;8192;53.596;10.166;2023-08-07T06:24:31;24.60;;;20.77;;
16171;SDS011;8192;53.596;10.166;2023-08-07T06:26:58;22.67;;;20.23;;
16171;SDS011;8192;53.596;10.166;2023-08-07T06:29:25;24.60;;;20.90;;
16171;SDS011;8192;53.596;10.166;2023-08-07T06:31:53;22.52;;;20.33;;
16171;SDS011;8192;53.596;10.166;2023-08-07T06:34:21;23.52;;;20.38;;
16171;SDS011;8192;53.596;10.166;2023-08-07T06:36:48;23.45;;;20.88;;
16171;SDS011;8192;53.596;10.166;2023-08-07T06:39:15;23.42;;;21.02;;
16171;SDS011;8192;53.596;10.166;2023-08-07T06:41:43;26.77;;;21.25;;
16171;SDS011;8192;53.596;10.166;2023-08-07T06:44:11;24.00;;;20.80;;
16171;SDS011;8192;53.596;10.166;2023-08-07T06:46:37;23.88;;;21.17;;
16171;SDS011;8192;53.596;10.166;2023-08-07T06:49:06;24.20;;;21.30;;
16171;SDS011;8192;53.596;10.166;2023-08-07T06:51:33;25.88;;;21.25;;
16171;SDS011;8192;53.596;10.166;2023-08-07T06:54:00;22.75;;;20.58;;
16171;SDS011;8192;53.596;10.166;2023-08-07T06:56:28;25.23;;;21.30;;
16171;SDS011;8192;53.596;10.166;2023-08-07T06:58:55;23.88;;;21.50;;
16171;SDS011;8192;53.596;10.166;2023-08-07T07:01:24;23.58;;;21.05;;
16171;SDS011;8192;53.596;10.166;2023-08-07T07:03:51;26.35;;;21.23;;
16171;SDS011;8192;53.596;10.166;2023-08-07T07:06:20;23.80;;;21.25;;
16171;SDS011;8192;53.596;10.166;2023-08-07T07:08:50;27.42;;;20.75;;
16171;SDS011;8192;53.596;10.166;2023-08-07T07:11:19;23.00;;;20.65;;
16171;SDS011;8192;53.596;10.166;2023-08-07T07:13:47;24.40;;;21.50;;
16171;SDS011;8192;53.596;10.166;2023-08-07T07:16:14;24.98;;;20.95;;
16171;SDS011;8192;53.596;10.166;2023-08-07T07:18:41;23.13;;;20.80;;
16171;SDS011;8192;53.596;10.166;2023-08-07T07:21:08;27.52;;;21.45;;
16171;SDS011;8192;53.596;10.166;2023-08-07T07:23:36;23.33;;;20.95;;
16171;SDS011;8192;53.596;10.166;2023-08-07T07:26:03;23.58;;;21.05;;
16171;SDS011;8192;53.596;10.166;2023-08-07T07:28:30;25.42;;;21.30;;
16171;SDS011;8192;53.596;10.166;2023-08-07T07:30:57;24.00;;;21.10;;
16171;SDS011;8192;53.596;10.166;2023-08-07T07:33:24;23.95;;;21.38;;
16171;SDS011;8192;53.596;10.166;2023-08-07T07:35:52;23.23;;;21.00;;
16171;SDS011;8192;53.596;10.166;2023-08-07T07:38:20;24.17;;;21.58;;
16171;SDS011;8192;53.596;10.166;2023-08-07T07:40:48;23.70;;;21.40;;
16171;SDS011;8192;53.596;10.166;2023-08-07T07:43:15;25.25;;;21.65;;
16171;SDS011;8192;53.596;10.166;2023-08-07T07:45:43;23.58;;;21.10;;
16171;SDS011;8192;53.596;10.166;2023-08-07T07:48:12;23.42;;;21.08;;
16171;SDS011;8192;53.596;10.166;2023-08-07T07:50:40;26.95;;;21.73;;
16171;SDS011;8192;53.596;10.166;2023-08-07T07:53:07;24.05;;;21.38;;
16171;SDS011;8192;53.596;10.166;2023-08-07T07:55:34;27.85;;;21.30;;
16171;SDS011;8192;53.596;10.166;2023-08-07T07:58:04;23.02;;;20.88;;
16171;SDS011;8192;53.596;10.166;2023-08-07T08:00:31;25.17;;;22.20;;
16171;SDS011;8192;53.596;10.166;2023-08-07T08:02:58;24.60;;;22.05;;
16171;SDS011;8192;53.596;10.166;2023-08-07T08:05:25;23.27;;;20.90;;
16171;SDS011;8192;53.596;10.166;2023-08-07T08:07:52;24.95;;;21.95;;
16171;SDS011;8192;53.596;10.166;2023-08-07T08:10:20;27.80;;;21.98;;
16171;SDS011;8192;53.596;10.166;2023-08-07T08:12:47;25.20;;;21.73;;
16171;SDS011;8192;53.596;10.166;2023-08-07T08:15:15;25.45;;;22.33;;
16171;SDS011;8192;53.596;10.166;2023-08-07T08:17:42;24.25;;;21.90;;
16171;SDS011;8192;53.596;10.166;2023-08-07T08:20:10;27.90;;;22.00;;
16171;SDS011;8192;53.596;10.166;2023-08-07T08:22:37;24.48;;;22.05;;
16171;SDS011;8192;53.596;10.166;2023-08-07T08:25:04;24.33;;;21.95;;
16171;SDS011;8192;53.596;10.166;2023-08-07T08:27:31;27.33;;;21.73;;
16171;SDS011;8192;53.596;10.166;2023-08-07T08:29:58;25.83;;;22.35;;
16171;SDS011;8192;53.596;10.166;2023-08-07T08:34:56;24.73;;;21.95;;
16171;SDS011;8192;53.596;10.166;2023-08-07T08:37:24;24.75;;;21.85;;
16171;SDS011;8192;53.596;10.166;2023-08-07T08:39:51;24.48;;;22.02;;
16171;SDS011;8192;53.596;10.166;2023-08-07T08:42:19;26.80;;;22.08;;
16171;SDS011;8192;53.596;10.166;2023-08-07T08:44:47;25.20;;;21.42;;
16171;SDS011;8192;53.596;10.166;2023-08-07T08:47:17;25.85;;;22.05;;
16171;SDS011;8192;53.596;10.166;2023-08-07T08:49:47;26.95;;;22.08;;
16171;SDS011;8192;53.596;10.166;2023-08-07T08:52:17;29.40;;;22.95;;
16171;SDS011;8192;53.596;10.166;2023-08-07T08:54:45;28.50;;;24.23;;
16171;SDS011;8192;53.596;10.166;2023-08-07T08:57:13;27.92;;;24.95;;
16171;SDS011;8192;53.596;10.166;2023-08-07T08:59:41;29.65;;;24.27;;
16171;SDS011;8192;53.596;10.166;2023-08-07T09:02:08;28.35;;;23.83;;
16171;SDS011;8192;53.596;10.166;2023-08-07T09:04:36;26.20;;;23.45;;
16171;SDS011;8192;53.596;10.166;2023-08-07T09:07:08;32.38;;;23.65;;
16171;SDS011;8192;53.596;10.166;2023-08-07T09:09:36;27.73;;;23.38;;
16171;SDS011;8192;53.596;10.166;2023-08-07T09:12:04;28.45;;;23.42;;
16171;SDS011;8192;53.596;10.166;2023-08-07T09:14:32;27.30;;;22.58;;
16171;SDS011;8192;53.596;10.166;2023-08-07T09:17:02;28.75;;;23.40;;
16171;SDS011;8192;53.596;10.166;2023-08-07T09:19:30;32.17;;;23.02;;
16171;SDS011;8192;53.596;10.166;2023-08-07T09:21:59;27.20;;;23.13;;
16171;SDS011;8192;53.596;10.166;2023-08-07T09:24:28;28.73;;;23.20;;
16171;SDS011;8192;53.596;10.166;2023-08-07T09:26:56;31.02;;;22.48;;
16171;SDS011;8192;53.596;10.166;2023-08-07T09:29:23;25.10;;;21.98;;
16171;SDS011;8192;53.596;10.166;2023-08-07T09:31:50;29.60;;;22.17;;
16171;SDS011;8192;53.596;10.166;2023-08-07T09:34:19;27.45;;;22.42;;
16171;SDS011;8192;53.596;10.166;2023-08-07T09:36:47;29.25;;;22.25;;
16171;SDS011;8192;53.596;10.166;2023-08-07T09:39:14;25.50;;;21.50;;
16171;SDS011;8192;53.596;10.166;2023-08-07T09:41:42;23.05;;;20.92;;
16171;SDS011;8192;53.596;10.166;2023-08-07T09:44:18;25.35;;;22.35;;
16171;SDS011;8192;53.596;10.166;2023-08-07T09:46:45;24.08;;;21.63;;
16171;SDS011;8192;53.596;10.166;2023-08-07T09:49:12;23.85;;;21.42;;
16171;SDS011;8192;53.596;10.166;2023-08-07T09:51:42;26.85;;;22.42;;
16171;SDS011;8192;53.596;10.166;2023-08-07T09:54:10;24.95;;;22.42;;
16171;SDS011;8192;53.596;10.166;2023-08-07T09:56:37;24.48;;;21.77;;
16171;SDS011;8192;53.596;10.166;2023-08-07T09:59:07;25.50;;;22.77;;
16171;SDS011;8192;53.596;10.166;2023-08-07T10:01:36;26.45;;;22.60;;
16171;SDS011;8192;53.596;10.166;2023-08-07T10:04:05;25.17;;;22.67;;
16171;SDS011;8192;53.596;10.166;2023-08-07T10:06:33;24.88;;;22.25;;
16171;SDS011;8192;53.596;10.166;2023-08-07T10:09:00;26.52;;;22.55;;
16171;SDS011;8192;53.596;10.166;2023-08-07T10:11:29;24.27;;;21.83;;
16171;SDS011;8192;53.596;10.166;2023-08-07T10:13:57;24.00;;;21.60;;
16171;SDS011;8192;53.596;10.166;2023-08-07T10:16:27;25.08;;;22.15;;
16171;SDS011;8192;53.596;10.166;2023-08-07T10:18:54;23.73;;;21.35;;
16171;SDS011;8192;53.596;10.166;2023-08-07T10:21:21;24.88;;;22.30;;
16171;SDS011;8192;53.596;10.166;2023-08-07T10:23:49;23.88;;;21.48;;
16171;SDS011;8192;53.596;10.166;2023-08-07T10:26:18;24.08;;;21.63;;
16171;SDS011;8192;53.596;10.166;2023-08-07T10:28:47;25.00;;;22.55;;
16171;SDS011;8192;53.596;10.166;2023-08-07T10:31:18;24.30;;;21.77;;
16171;SDS011;8192;53.596;10.166;2023-08-07T10:33:48;24.42;;;21.95;;
16171;SDS011;8192;53.596;10.166;2023-08-07T10:36:16;24.27;;;21.98;;
16171;SDS011;8192;53.596;10.166;2023-08-07T10:38:45;24.77;;;22.38;;
16171;SDS011;8192;53.596;10.166;2023-08-07T10:41:16;23.80;;;21.63;;
16171;SDS011;8192;53.596;10.166;2023-08-07T10:43:45;24.40;;;21.75;;
16171;SDS011;8192;53.596;10.166;2023-08-07T10:46:14;23.85;;;21.63;;
16171;SDS011;8192;53.596;10.166;2023-08-07T10:48:43;23.70;;;21.38;;
16171;SDS011;8192;53.596;10.166;2023-08-07T10:51:14;24.20;;;21.60;;
16171;SDS011;8192;53.596;10.166;2023-08-07T10:53:41;23.30;;;21.10;;
16171;SDS011;8192;53.596;10.166;2023-08-07T10:56:11;24.70;;;21.83;;
16171;SDS011;8192;53.596;10.166;2023-08-07T10:58:47;23.80;;;21.58;;
16171;SDS011;8192;53.596;10.166;2023-08-07T11:01:28;23.40;;;21.17;;
16171;SDS011;8192;53.596;10.166;2023-08-07T11:04:09;23.52;;;21.23;;
16171;SDS011;8192;53.596;10.166;2023-08-07T11:06:39;24.00;;;21.77;;
16171;SDS011;8192;53.596;10.166;2023-08-07T11:09:07;23.65;;;21.70;;
16171;SDS011;8192;53.596;10.166;2023-08-07T11:11:36;24.08;;;21.90;;
16171;SDS011;8192;53.596;10.166;2023-08-07T11:14:05;25.08;;;22.55;;
16171;SDS011;8192;53.596;10.166;2023-08-07T11:16:32;23.67;;;21.50;;
16171;SDS011;8192;53.596;10.166;2023-08-07T11:19:00;23.58;;;21.38;;
16171;SDS011;8192;53.596;10.166;2023-08-07T11:21:28;23.85;;;21.52;;
16171;SDS011;8192;53.596;10.166;2023-08-07T11:23:58;23.75;;;21.35;;
16171;SDS011;8192;53.596;10.166;2023-08-07T11:26:26;23.15;;;21.00;;
16171;SDS011;8192;53.596;10.166;2023-08-07T11:28:53;26.88;;;21.65;;
16171;SDS011;8192;53.596;10.166;2023-08-07T11:31:21;26.63;;;21.48;;
16171;SDS011;8192;53.596;10.166;2023-08-07T11:33:50;23.55;;;21.30;;
16171;SDS011;8192;53.596;10.166;2023-08-07T11:36:17;23.25;;;21.25;;
16171;SDS011;8192;53.596;10.166;2023-08-07T11:38:44;23.10;;;21.20;;
16171;SDS011;8192;53.596;10.166;2023-08-07T11:41:13;23.58;;;21.17;;
16171;SDS011;8192;53.596;10.166;2023-08-07T11:43:41;23.15;;;21.02;;
16171;SDS011;8192;53.596;10.166;2023-08-07T11:46:09;22.42;;;20.45;;
16171;SDS011;8192;53.596;10.166;2023-08-07T11:48:37;22.55;;;20.25;;
16171;SDS011;8192;53.596;10.166;2023-08-07T11:51:05;22.90;;;20.63;;
16171;SDS011;8192;53.596;10.166;2023-08-07T11:53:33;22.25;;;20.15;;
16171;SDS011;8192;53.596;10.166;2023-08-07T11:56:01;23.00;;;20.95;;
16171;SDS011;8192;53.596;10.166;2023-08-07T11:58:34;23.45;;;21.33;;
16171;SDS011;8192;53.596;10.166;2023-08-07T12:01:03;22.88;;;20.83;;
16171;SDS011;8192;53.596;10.166;2023-08-07T12:03:32;22.65;;;20.60;;
16171;SDS011;8192;53.596;10.166;2023-08-07T12:06:03;22.08;;;20.30;;
16171;SDS011;8192;53.596;10.166;2023-08-07T12:08:32;22.75;;;20.75;;
16171;SDS011;8192;53.596;10.166;2023-08-07T12:11:00;23.33;;;21.35;;
16171;SDS011;8192;53.596;10.166;2023-08-07T12:13:29;22.55;;;20.35;;
16171;SDS011;8192;53.596;10.166;2023-08-07T12:16:02;22.15;;;20.25;;
16171;SDS011;8192;53.596;10.166;2023-08-07T12:18:30;23.38;;;20.98;;
16171;SDS011;8192;53.596;10.166;2023-08-07T12:20:59;21.63;;;19.83;;
16171;SDS011;8192;53.596;10.166;2023-08-07T12:23:27;22.35;;;20.45;;
16171;SDS011;8192;53.596;10.166;2023-08-07T12:25:59;23.05;;;20.92;;
16171;SDS011;8192;53.596;10.166;2023-08-07T12:28:28;22.05;;;20.15;;
16171;SDS011;8192;53.596;10.166;2023-08-07T12:30:56;22.65;;;20.77;;
16171;SDS011;8192;53.596;10.166;2023-08-07T12:33:24;23.00;;;20.75;;
16171;SDS011;8192;53.596;10.166;2023-08-07T12:35:52;22.15;;;20.30;;
16171;SDS011;8192;53.596;10.166;2023-08-07T12:38:19;22.23;;;20.17;;
16171;SDS011;8192;53.596;10.166;2023-08-07T12:40:46;22.77;;;20.65;;
16171;SDS011;8192;53.596;10.166;2023-08-07T12:43:13;22.98;;;20.45;;
16171;SDS011;8192;53.596;10.166;2023-08-07T12:45:40;22.90;;;21.00;;
16171;SDS011;8192;53.596;10.166;2023-08-07T12:48:07;22.55;;;20.77;;
16171;SDS011;8192;53.596;10.166;2023-08-07T12:50:36;23.27;;;21.17;;
16171;SDS011;8192;53.596;10.166;2023-08-07T12:53:03;24.10;;;21.75;;
16171;SDS011;8192;53.596;10.166;2023-08-07T12:55:31;24.17;;;21.60;;
16171;SDS011;8192;53.596;10.166;2023-08-07T12:57:58;23.63;;;21.48;;
16171;SDS011;8192;53.596;10.166;2023-08-07T13:00:25;23.50;;;21.42;;
16171;SDS011;8192;53.596;10.166;2023-08-07T13:02:52;23.50;;;21.55;;
16171;SDS011;8192;53.596;10.166;2023-08-07T13:05:21;22.90;;;20.83;;
16171;SDS011;8192;53.596;10.166;2023-08-07T13:07:50;24.55;;;22.00;;
16171;SDS011;8192;53.596;10.166;2023-08-07T13:10:19;23.70;;;21.67;;
16171;SDS011;8192;53.596;10.166;2023-08-07T13:12:47;24.35;;;22.08;;
16171;SDS011;8192;53.596;10.166;2023-08-07T13:15:15;23.33;;;21.30;;
16171;SDS011;8192;53.596;10.166;2023-08-07T13:17:43;23.35;;;21.02;;
16171;SDS011;8192;53.596;10.166;2023-08-07T13:20:11;23.05;;;21.10;;
16171;SDS011;8192;53.596;10.166;2023-08-07T13:22:40;23.67;;;21.25;;
16171;SDS011;8192;53.596;10.166;2023-08-07T13:25:10;23.50;;;21.08;;
16171;SDS011;8192;53.596;10.166;2023-08-07T13:27:38;23.75;;;21.50;;
16171;SDS011;8192;53.596;10.166;2023-08-07T13:30:07;24.33;;;21.92;;
16171;SDS011;8192;53.596;10.166;2023-08-07T13:32:34;23.15;;;20.85;;
16171;SDS011;8192;53.596;10.166;2023-08-07T13:35:02;23.92;;;21.73;;
16171;SDS011;8192;53.596;10.166;2023-08-07T13:37:31;23.00;;;20.90;;
16171;SDS011;8192;53.596;10.166;2023-08-07T13:39:58;23.35;;;21.10;;
16171;SDS011;8192;53.596;10.166;2023-08-07T13:42:27;24.00;;;21.60;;
16171;SDS011;8192;53.596;10.166;2023-08-07T13:44:54;23.63;;;21.27;;
16171;SDS011;8192;53.596;10.166;2023-08-07T13:47:22;23.55;;;21.45;;
16171;SDS011;8192;53.596;10.166;2023-08-07T13:49:50;22.92;;;21.17;;
16171;SDS011;8192;53.596;10.166;2023-08-07T13:52:18;23.45;;;21.17;;
16171;SDS011;8192;53.596;10.166;2023-08-07T13:54:44;23.90;;;21.67;;
16171;SDS011;8192;53.596;10.166;2023-08-07T13:57:12;24.27;;;21.65;;
16171;SDS011;8192;53.596;10.166;2023-08-07T13:59:40;23.58;;;21.45;;
16171;SDS011;8192;53.596;10.166;2023-08-07T14:02:07;23.88;;;21.77;;
16171;SDS011;8192;53.596;10.166;2023-08-07T14:04:34;23.65;;;21.45;;
16171;SDS011;8192;53.596;10.166;2023-08-07T14:07:02;24.15;;;21.20;;
16171;SDS011;8192;53.596;10.166;2023-08-07T14:09:29;24.30;;;21.80;;
16171;SDS011;8192;53.596;10.166;2023-08-07T14:11:56;23.70;;;21.30;;
16171;SDS011;8192;53.596;10.166;2023-08-07T14:14:24;23.50;;;21.00;;
16171;SDS011;8192;53.596;10.166;2023-08-07T14:16:52;23.58;;;21.38;;
16171;SDS011;8192;53.596;10.166;2023-08-07T14:19:22;25.27;;;21.42;;
16171;SDS011;8192;53.596;10.166;2023-08-07T14:21:50;22.95;;;20.85;;
16171;SDS011;8192;53.596;10.166;2023-08-07T14:24:17;24.63;;;21.98;;
16171;SDS011;8192;53.596;10.166;2023-08-07T14:26:45;26.38;;;22.40;;
16171;SDS011;8192;53.596;10.166;2023-08-07T14:29:12;23.52;;;21.17;;